Time;durP1;ratioP1;P1;durP2;ratioP2;P2;SDS_P1;SDS_P2;PMS_P1;PMS_P2;Temp;Humidity;BMP_temperature;BMP_pressure;BME280_temperature;BME280_humidity;BME280_pressure;Samples;Min_cycle;Max_cycle;Signal;HPM_P1;HPM_P2
2024/03/11 00:00:15;;;;;;;7.10;4.40;;;;;;;-1.33;69.33;99975.04;79569;1295;3013419;-62
2024/03/11 00:02:45;;;;;;;6.50;3.80;;;;;;;-1.26;69.24;99975.89;78401;1294;3050648;-62
2024/03/11 00:05:12;;;;;;;8.20;4.30;;;;;;;-1.20;68.82;99984.11;79798;1289;3012977;-60
2024/03/11 00:07:43;;;;;;;8.90;4.30;;;;;;;-1.26;69.42;99990.66;79268;1295;3013092;-63
2024/03/11 00:10:13;;;;;;;6.90;3.80;;;;;;;-1.24;69.43;99991.86;80180;1295;3011364;-60
2024/03/11 00:12:49;;;;;;;7.90;4.60;;;;;;;-1.24;68.98;99997.18;78260;1294;3050665;-63
2024/03/11 00:15:20;;;;;;;9.30;4.20;;;;;;;-1.31;69.51;99994.14;78953;1294;3012767;-64
2024/03/11 00:17:50;;;;;;;7.30;4.60;;;;;;;-1.29;69.61;99996.36;82137;1292;3011153;-61
2024/03/11 00:20:20;;;;;;;8.80;4.40;;;;;;;-1.28;69.84;99994.96;80949;1292;3050814;-64
2024/03/11 00:22:48;;;;;;;9.20;4.40;;;;;;;-1.21;69.51;99997.52;82217;1291;3011156;-63
2024/03/11 00:26:12;;;;;;;12.40;5.10;;;;;;;-1.14;69.08;99999.39;80519;1300;3013569;-62
2024/03/11 00:28:38;;;;;;;8.10;5.40;;;;;;;-1.15;69.14;100004.55;78900;1299;3013002;-60
2024/03/11 00:31:06;;;;;;;11.70;5.20;;;;;;;-1.21;69.28;100008.00;79301;1299;3011613;-59
2024/03/11 00:33:34;;;;;;;9.50;4.90;;;;;;;-1.32;69.82;100006.84;77979;1301;3052016;-60
2024/03/11 00:36:03;;;;;;;8.20;4.90;;;;;;;-1.43;70.26;100004.65;79356;1301;3012954;-59
2024/03/11 00:38:32;;;;;;;7.70;4.60;;;;;;;-1.37;69.91;100008.23;79305;1298;3012524;-60
2024/03/11 00:41:00;;;;;;;9.90;4.90;;;;;;;-1.38;69.77;100010.81;78397;1298;3047718;-61
2024/03/11 00:43:27;;;;;;;7.90;5.00;;;;;;;-1.37;70.00;100012.70;79303;1295;3013290;-60
2024/03/11 00:45:53;;;;;;;7.90;4.40;;;;;;;-1.33;69.43;100013.89;79614;1300;3013245;-61
2024/03/11 00:48:21;;;;;;;9.00;4.90;;;;;;;-1.33;69.38;100015.96;78131;1298;3026858;-61
2024/03/11 00:50:48;;;;;;;10.00;5.10;;;;;;;-1.42;69.73;100017.71;79460;1296;3012677;-61
2024/03/11 00:53:15;;;;;;;8.30;4.90;;;;;;;-1.44;70.05;100017.72;79514;1299;3011616;-62
2024/03/11 00:55:43;;;;;;;9.40;5.10;;;;;;;-1.55;70.19;100013.09;78472;1301;3024827;-60
2024/03/11 00:58:12;;;;;;;10.60;4.90;;;;;;;-1.48;69.96;100017.38;79572;1295;3019109;-62
2024/03/11 01:00:41;;;;;;;8.80;4.90;;;;;;;-1.55;69.83;100017.73;79246;1302;3011656;-62
2024/03/11 01:03:09;;;;;;;8.90;4.40;;;;;;;-1.63;70.25;100017.75;78446;1294;3051902;-62
2024/03/11 01:05:36;;;;;;;7.60;4.60;;;;;;;-1.56;69.85;100021.85;80338;1295;3013026;-59
2024/03/11 01:08:03;;;;;;;9.90;5.30;;;;;;;-1.65;70.12;100028.77;79733;1295;3013234;-59
2024/03/11 01:10:31;;;;;;;8.80;5.50;;;;;;;-1.79;70.36;100030.66;78445;1295;3049314;-61
2024/03/11 01:12:58;;;;;;;8.90;5.30;;;;;;;-1.99;71.27;100038.41;79276;1298;3013133;-61
2024/03/11 01:15:25;;;;;;;9.00;5.30;;;;;;;-1.91;71.17;100040.80;79258;1298;3013531;-62
2024/03/11 01:17:55;;;;;;;7.30;4.40;;;;;;;-1.92;71.03;100046.98;78401;1294;3051251;-61
2024/03/11 01:20:24;;;;;;;8.40;4.60;;;;;;;-2.12;71.78;100047.50;79392;1295;3013256;-63
2024/03/11 01:22:52;;;;;;;7.80;4.40;;;;;;;-2.08;71.68;100051.97;78127;1300;3026195;-64
2024/03/11 01:25:20;;;;;;;9.90;4.70;;;;;;;-2.10;71.95;100052.31;79399;1299;3011954;-60
2024/03/11 01:27:46;;;;;;;8.40;4.90;;;;;;;-2.04;71.77;100054.37;79821;1295;3013330;-62
2024/03/11 01:30:14;;;;;;;12.40;5.70;;;;;;;-2.08;71.62;100057.46;78081;1300;3027895;-63
2024/03/11 01:32:45;;;;;;;9.90;5.40;;;;;;;-2.14;71.83;100061.92;79298;1300;3013259;-60
2024/03/11 01:35:13;;;;;;;9.10;5.00;;;;;;;-2.10;71.61;100068.45;78306;1296;3069387;-62
2024/03/11 01:37:41;;;;;;;8.50;5.30;;;;;;;-2.20;72.26;100066.21;79199;1296;3013610;-61
2024/03/11 01:40:13;;;;;;;10.70;5.00;;;;;;;-2.15;72.13;100066.38;79257;1295;3011854;-62
2024/03/11 01:42:42;;;;;;;8.80;4.90;;;;;;;-2.22;72.32;100069.12;77972;1301;3053361;-61
2024/03/11 01:45:09;;;;;;;10.20;5.10;;;;;;;-2.28;72.71;100067.23;79592;1301;3012674;-62
2024/03/11 01:47:37;;;;;;;7.50;4.80;;;;;;;-2.26;72.69;100071.00;79349;1295;3011795;-61
2024/03/11 01:50:07;;;;;;;11.80;4.90;;;;;;;-2.26;72.33;100071.86;78204;1296;3069178;-61
2024/03/11 01:52:35;;;;;;;7.60;4.30;;;;;;;-2.22;72.22;100073.41;79420;1295;3011732;-61
2024/03/11 01:55:05;;;;;;;8.10;5.50;;;;;;;-2.27;72.38;100082.33;78008;1300;3026720;-61
2024/03/11 01:57:35;;;;;;;8.60;4.50;;;;;;;-2.32;72.57;100083.18;80037;1305;3012506;-59
2024/03/11 02:00:08;;;;;;;10.30;5.60;;;;;;;-2.24;72.33;100086.12;78468;1298;3049384;-61
2024/03/11 02:02:38;;;;;;;12.80;4.80;;;;;;;-2.26;72.44;100089.37;79276;1295;3013103;-63
2024/03/11 02:05:09;;;;;;;7.50;5.10;;;;;;;-2.28;72.32;100088.33;77913;1294;3051606;-62
2024/03/11 02:07:37;;;;;;;10.30;5.70;;;;;;;-2.40;72.75;100097.23;79426;1295;3013063;-61
2024/03/11 02:10:13;;;;;;;8.70;5.80;;;;;;;-2.38;72.80;100100.52;78389;1300;3026617;-62
2024/03/11 02:12:41;;;;;;;7.40;5.20;;;;;;;-2.46;72.86;100111.80;77987;1300;3055821;-62
2024/03/11 02:15:11;;;;;;;11.90;6.10;;;;;;;-2.58;73.39;100113.99;79378;1295;3013090;-61
2024/03/11 02:17:40;;;;;;;10.30;5.90;;;;;;;-2.55;73.51;100116.23;77902;1300;3049804;-61
2024/03/11 02:20:09;;;;;;;11.40;6.00;;;;;;;-2.48;73.35;100119.00;79522;1301;3013424;-61
2024/03/11 02:22:56;;;;;;;10.90;6.40;;;;;;;-2.79;74.09;100122.84;78051;1295;3069092;-60
2024/03/11 02:25:28;;;;;;;11.80;6.20;;;;;;;-2.76;74.14;100125.42;78038;1295;3050128;-60
2024/03/11 02:27:57;;;;;;;13.10;6.40;;;;;;;-2.69;73.68;100123.40;79192;1300;3011578;-59
2024/03/11 02:30:25;;;;;;;10.20;5.80;;;;;;;-2.64;73.47;100128.21;78235;1295;3049391;-58
2024/03/11 02:32:52;;;;;;;17.50;6.50;;;;;;;-2.74;73.71;100128.17;79190;1301;3013097;-61
2024/03/11 02:35:18;;;;;;;12.90;6.50;;;;;;;-2.67;73.69;100130.25;79797;1300;3012913;-62
2024/03/11 02:37:46;;;;;;;16.30;7.00;;;;;;;-2.73;73.38;100133.84;78065;1300;3028389;-63
2024/03/11 02:40:13;;;;;;;16.40;6.90;;;;;;;-2.76;73.73;100139.65;79560;1300;3019108;-62
2024/03/11 02:42:40;;;;;;;20.10;8.40;;;;;;;-2.74;73.60;100137.95;79203;1297;3011778;-61
2024/03/11 02:45:12;;;;;;;23.40;7.80;;;;;;;-2.67;73.04;100144.16;78023;1300;3025220;-59
2024/03/11 02:47:38;;;;;;;29.70;10.30;;;;;;;-2.69;72.97;100148.25;79535;1295;3011677;-59
2024/03/11 02:50:07;;;;;;;35.10;10.30;;;;;;;-2.88;73.51;100151.61;77979;1301;3028140;-59
2024/03/11 02:52:36;;;;;;;27.30;9.70;;;;;;;-3.03;74.09;100155.97;79470;1299;3013696;-60
2024/03/11 02:55:05;;;;;;;21.60;7.80;;;;;;;-3.10;74.46;100165.36;78882;1299;3013431;-60
2024/03/11 02:57:32;;;;;;;19.90;7.30;;;;;;;-2.95;73.81;100171.11;79433;1299;3011647;-59
2024/03/11 02:59:59;;;;;;;23.80;8.30;;;;;;;-3.05;74.21;100176.36;79328;1294;3011599;-61
2024/03/11 03:02:27;;;;;;;15.80;6.60;;;;;;;-3.08;74.59;100182.68;78007;1301;3048599;-59
2024/03/11 03:04:55;;;;;;;11.70;5.50;;;;;;;-2.97;73.90;100190.98;79190;1296;3013675;-59
2024/03/11 03:07:24;;;;;;;16.60;6.50;;;;;;;-3.01;73.78;100190.45;79335;1296;3011829;-59
2024/03/11 03:09:52;;;;;;;10.80;5.60;;;;;;;-2.97;74.02;100195.11;78336;1295;3052148;-61
2024/03/11 03:12:19;;;;;;;10.90;4.80;;;;;;;-2.98;73.70;100199.21;79306;1300;3018542;-59
2024/03/11 03:14:46;;;;;;;8.20;5.10;;;;;;;-2.93;73.68;100202.83;79338;1297;3011674;-61
2024/03/11 03:17:14;;;;;;;8.00;4.90;;;;;;;-2.90;73.83;100205.09;78223;1295;3027082;-59
2024/03/11 03:19:40;;;;;;;10.80;5.30;;;;;;;-2.83;73.80;100204.95;79371;1295;3013567;-61
2024/03/11 03:22:07;;;;;;;9.40;5.00;;;;;;;-2.92;73.87;100209.34;79285;1300;3011817;-60
2024/03/11 03:24:36;;;;;;;9.60;4.70;;;;;;;-2.86;73.56;100212.48;78317;1298;3028872;-60
2024/03/11 03:27:03;;;;;;;9.80;5.20;;;;;;;-2.85;73.51;100218.83;79848;1295;3012750;-61
2024/03/11 03:29:30;;;;;;;11.50;5.50;;;;;;;-2.93;73.51;100215.35;79216;1299;3011254;-61
2024/03/11 03:31:58;;;;;;;10.30;5.00;;;;;;;-2.89;73.33;100217.61;78255;1300;3049551;-63
2024/03/11 03:34:25;;;;;;;9.30;5.70;;;;;;;-2.87;72.94;100222.59;79388;1295;3013576;-62
2024/03/11 03:36:51;;;;;;;10.20;5.40;;;;;;;-2.94;73.08;100223.74;79208;1300;3013816;-61
2024/03/11 03:39:20;;;;;;;11.20;5.20;;;;;;;-3.02;73.47;100234.15;78115;1300;3026362;-61
2024/03/11 03:41:47;;;;;;;10.60;6.20;;;;;;;-3.01;73.70;100233.64;79187;1295;3012891;-61
2024/03/11 03:44:13;;;;;;;10.50;5.60;;;;;;;-3.07;73.51;100235.83;79214;1295;3011691;-59
2024/03/11 03:46:41;;;;;;;9.70;5.80;;;;;;;-3.06;73.54;100236.02;78093;1300;3048720;-61
2024/03/11 03:49:08;;;;;;;11.20;6.30;;;;;;;-3.08;73.32;100240.80;79384;1300;3012891;-63
2024/03/11 03:51:34;;;;;;;10.20;6.00;;;;;;;-3.10;73.34;100235.97;79153;1300;3012100;-63
2024/03/11 03:54:02;;;;;;;10.60;6.70;;;;;;;-3.11;73.34;100239.05;78050;1301;3028457;-63
2024/03/11 03:56:30;;;;;;;12.20;7.10;;;;;;;-3.11;73.22;100244.71;79585;1295;3018458;-62
2024/03/11 03:58:57;;;;;;;12.40;7.10;;;;;;;-3.16;73.74;100250.15;79224;1295;3011587;-61
2024/03/11 04:01:25;;;;;;;13.80;7.50;;;;;;;-3.18;73.79;100254.08;77989;1300;3048821;-60
2024/03/11 04:03:51;;;;;;;15.00;7.50;;;;;;;-3.19;73.94;100255.79;79581;1300;3012677;-59
2024/03/11 04:06:18;;;;;;;14.10;7.30;;;;;;;-3.23;73.92;100261.41;80031;1296;3011597;-62
2024/03/11 04:08:46;;;;;;;12.40;7.10;;;;;;;-3.30;73.47;100259.29;78009;1300;3025966;-62
2024/03/11 04:11:12;;;;;;;13.00;6.90;;;;;;;-3.21;73.14;100263.83;79569;1300;3013780;-63
2024/03/11 04:13:39;;;;;;;11.60;6.60;;;;;;;-3.08;71.83;100258.79;79268;1300;3012893;-61
2024/03/11 04:16:07;;;;;;;12.20;7.30;;;;;;;-3.01;70.94;100267.75;78670;1300;3028283;-61
2024/03/11 04:18:34;;;;;;;14.40;7.00;;;;;;;-2.95;70.18;100276.02;79660;1298;3012958;-61
2024/03/11 04:21:00;;;;;;;14.00;7.30;;;;;;;-2.89;69.88;100276.93;79105;1300;3011746;-59
2024/03/11 04:23:29;;;;;;;12.70;6.30;;;;;;;-2.78;69.41;100283.86;78019;1298;3028602;-61
2024/03/11 04:25:57;;;;;;;11.40;6.30;;;;;;;-2.76;68.43;100290.39;79168;1300;3013256;-61
2024/03/11 04:28:28;;;;;;;11.70;6.60;;;;;;;-2.81;68.05;100296.54;79598;1295;3012483;-61
2024/03/11 04:30:57;;;;;;;10.10;6.00;;;;;;;-2.75;68.06;100299.15;78091;1298;3049591;-61
2024/03/11 04:33:23;;;;;;;7.80;5.30;;;;;;;-2.75;67.68;100297.08;79307;1295;3013856;-62
2024/03/11 04:35:50;;;;;;;13.80;5.70;;;;;;;-2.73;67.57;100301.55;79162;1300;3011832;-62
2024/03/11 04:38:19;;;;;;;10.90;5.90;;;;;;;-2.68;67.43;100302.11;78207;1301;3026654;-60
2024/03/11 04:40:47;;;;;;;12.90;6.50;;;;;;;-2.58;67.36;100298.23;79283;1300;3016054;-62
2024/03/11 04:43:13;;;;;;;10.20;6.10;;;;;;;-2.49;67.36;100300.16;79203;1295;3011845;-62
2024/03/11 04:45:41;;;;;;;16.20;6.90;;;;;;;-2.62;67.28;100310.05;77945;1301;3049707;-60
2024/03/11 04:48:09;;;;;;;12.50;6.50;;;;;;;-2.49;67.43;100316.64;79288;1301;3013178;-61
2024/03/11 04:50:37;;;;;;;12.90;7.00;;;;;;;-2.40;66.84;100320.64;79360;1301;3011756;-62
2024/03/11 04:53:06;;;;;;;10.40;6.50;;;;;;;-2.38;66.17;100324.09;79231;1298;3052163;-62
2024/03/11 04:55:34;;;;;;;12.50;6.70;;;;;;;-2.39;65.61;100329.23;79250;1295;3018601;-63
2024/03/11 04:58:01;;;;;;;14.90;6.40;;;;;;;-2.36;64.78;100329.94;79302;1295;3011798;-62
2024/03/11 05:00:30;;;;;;;11.60;5.70;;;;;;;-2.35;63.44;100332.34;78162;1298;3050483;-62
2024/03/11 05:02:58;;;;;;;11.30;5.50;;;;;;;-2.31;62.77;100333.04;79835;1295;3013111;-61
2024/03/11 05:05:31;;;;;;;9.10;4.60;;;;;;;-2.24;62.19;100338.59;78817;1298;3013238;-60
2024/03/11 05:07:58;;;;;;;8.00;4.90;;;;;;;-2.23;60.93;100343.55;79101;1300;3012914;-61
2024/03/11 05:10:26;;;;;;;8.30;4.50;;;;;;;-2.25;59.81;100351.45;78054;1300;3028256;-60
2024/03/11 05:12:52;;;;;;;12.40;5.50;;;;;;;-2.21;59.65;100353.01;79147;1300;3013007;-62
2024/03/11 05:15:19;;;;;;;9.70;4.80;;;;;;;-2.16;59.67;100353.21;79079;1297;3012044;-63
2024/03/11 05:17:47;;;;;;;13.60;5.40;;;;;;;-2.04;59.94;100356.71;77885;1299;3028214;-61
2024/03/11 05:20:18;;;;;;;8.20;4.70;;;;;;;-2.09;58.94;100359.61;79172;1295;3013521;-62
2024/03/11 05:22:47;;;;;;;10.10;5.40;;;;;;;-1.99;59.31;100362.42;78088;1298;3054067;-63
2024/03/11 05:25:17;;;;;;;9.10;4.70;;;;;;;-1.88;58.92;100365.56;79347;1301;3012691;-62
2024/03/11 05:27:52;;;;;;;7.90;4.80;;;;;;;-1.87;58.29;100369.32;78447;1301;3050627;-59
2024/03/11 05:30:21;;;;;;;10.50;4.70;;;;;;;-1.81;57.63;100370.56;78675;1295;3013127;-64
2024/03/11 05:32:48;;;;;;;11.10;4.30;;;;;;;-1.76;57.39;100379.17;79830;1298;3013000;-61
2024/03/11 05:35:16;;;;;;;7.90;4.30;;;;;;;-1.76;56.75;100388.11;79224;1301;3013633;-60
2024/03/11 05:37:44;;;;;;;11.90;5.30;;;;;;;-1.98;56.12;100395.55;78529;1300;3050020;-61
2024/03/11 05:40:11;;;;;;;9.80;4.50;;;;;;;-1.97;55.91;100402.08;79272;1300;3019429;-61
2024/03/11 05:42:40;;;;;;;8.80;4.90;;;;;;;-1.79;55.85;100409.72;79122;1299;3011755;-61
2024/03/11 05:45:10;;;;;;;7.50;4.50;;;;;;;-1.98;55.32;100414.09;77933;1301;3052431;-63
2024/03/11 05:47:37;;;;;;;7.10;4.10;;;;;;;-2.00;55.04;100421.12;79145;1301;3013474;-62
2024/03/11 05:50:04;;;;;;;14.00;4.60;;;;;;;-1.89;54.98;100416.38;79588;1295;3011583;-63
2024/03/11 05:52:32;;;;;;;7.70;4.40;;;;;;;-1.67;54.54;100423.54;78126;1300;3049204;-61
2024/03/11 05:55:01;;;;;;;8.10;4.50;;;;;;;-1.71;53.65;100431.77;79991;1300;3013735;-66
2024/03/11 05:57:35;;;;;;;8.00;4.70;;;;;;;-1.78;53.56;100436.19;79607;1300;3011635;-60
2024/03/11 06:00:03;;;;;;;;;;;;;;;-1.65;53.58;100440.21;79542;1301;3012975;-61
2024/03/11 06:02:33;;;;;;;9.90;4.60;;;;;;;-1.68;53.27;100445.86;79038;1295;3050676;-64
2024/03/11 06:05:00;;;;;;;8.80;5.00;;;;;;;-1.54;53.54;100444.21;80780;1295;3015349;-62
2024/03/11 06:07:28;;;;;;;8.70;4.80;;;;;;;-1.39;53.04;100451.16;80746;1295;3011545;-62
2024/03/11 06:09:56;;;;;;;10.40;4.50;;;;;;;-1.35;52.90;100450.81;79483;1295;3048521;-61
2024/03/11 06:12:22;;;;;;;8.20;4.60;;;;;;;-1.21;52.37;100454.14;79290;1301;3013573;-61
2024/03/11 06:14:49;;;;;;;12.80;4.70;;;;;;;-1.15;51.14;100458.79;80049;1298;3011950;-62
2024/03/11 06:17:17;;;;;;;7.20;3.60;;;;;;;-1.02;51.41;100462.11;78895;1295;3025025;-63
2024/03/11 06:19:44;;;;;;;7.50;4.10;;;;;;;-1.02;50.62;100466.58;79408;1295;3013251;-60
2024/03/11 06:22:11;;;;;;;13.40;5.00;;;;;;;-0.85;51.20;100464.72;79897;1300;3011786;-60
2024/03/11 06:24:39;;;;;;;13.70;3.90;;;;;;;-0.91;49.20;100470.91;78843;1300;3049396;-61
2024/03/11 06:27:06;;;;;;;7.60;4.40;;;;;;;-1.00;48.45;100476.72;79506;1301;3012842;-60
2024/03/11 06:29:33;;;;;;;7.10;3.60;;;;;;;-0.97;48.68;100477.59;79854;1298;3011698;-61
2024/03/11 06:32:05;;;;;;;8.30;4.10;;;;;;;-0.80;48.83;100477.64;79466;1295;3052008;-61
2024/03/11 06:34:34;;;;;;;6.50;3.20;;;;;;;-0.76;47.85;100481.77;80015;1295;3012938;-62
2024/03/11 06:37:02;;;;;;;6.40;3.50;;;;;;;-0.78;46.49;100486.06;78491;1295;3048467;-61
2024/03/11 06:39:31;;;;;;;7.30;3.40;;;;;;;-0.66;46.62;100490.40;79351;1296;3019230;-60
2024/03/11 06:41:57;;;;;;;6.00;3.30;;;;;;;-0.64;45.92;100493.67;79720;1295;3011342;-59
2024/03/11 06:44:25;;;;;;;6.20;3.00;;;;;;;-0.63;45.43;100494.70;78821;1300;3052193;-62
2024/03/11 06:46:52;;;;;;;7.20;3.20;;;;;;;-0.62;45.53;100500.20;80268;1298;3012732;-61
2024/03/11 06:49:18;;;;;;;6.50;2.70;;;;;;;-0.55;44.77;100504.17;79326;1298;3011829;-62
2024/03/11 06:51:46;;;;;;;6.10;3.00;;;;;;;-0.53;44.54;100502.27;78009;1300;3026270;-62
2024/03/11 06:54:13;;;;;;;6.60;3.50;;;;;;;-0.64;44.72;100508.81;79170;1295;3021052;-61
2024/03/11 06:56:40;;;;;;;4.70;3.10;;;;;;;-0.36;45.01;100509.70;79099;1295;3011829;-61
2024/03/11 06:59:10;;;;;;;5.90;2.80;;;;;;;-0.13;44.77;100513.16;78057;1301;3026897;-62
2024/03/11 07:01:36;;;;;;;8.10;2.90;;;;;;;-0.03;44.49;100513.85;79922;1296;3012954;-63
2024/03/11 07:04:04;;;;;;;8.10;2.40;;;;;;;-0.01;43.85;100518.66;80008;1295;3011619;-60
2024/03/11 07:06:32;;;;;;;9.10;3.20;;;;;;;-0.04;43.27;100514.02;78503;1300;3049244;-59
2024/03/11 07:09:00;;;;;;;7.10;2.50;;;;;;;-0.03;43.03;100514.54;80634;1298;3012742;-59
2024/03/11 07:11:27;;;;;;;6.60;3.00;;;;;;;-0.02;43.38;100516.77;80688;1295;3011793;-59
2024/03/11 07:13:55;;;;;;;4.40;2.60;;;;;;;0.10;43.03;100521.58;78119;1301;3052411;-61
2024/03/11 07:16:22;;;;;;;5.00;2.50;;;;;;;0.18;42.87;100515.73;80175;1295;3018740;-60
2024/03/11 07:18:53;;;;;;;4.40;2.40;;;;;;;0.30;42.76;100514.15;79382;1296;3011883;-59
2024/03/11 07:21:27;;;;;;;6.20;2.50;;;;;;;0.24;41.17;100516.23;78337;1301;3050105;-61
2024/03/11 07:23:57;;;;;;;4.70;2.40;;;;;;;0.40;41.92;100512.58;79174;1295;3011698;-61
2024/03/11 07:26:23;;;;;;;6.20;2.60;;;;;;;0.55;41.04;100518.58;79611;1301;3013457;-61
2024/03/11 07:28:50;;;;;;;7.10;2.00;;;;;;;0.56;40.59;100521.50;80007;1300;3011414;-60
2024/03/11 07:31:18;;;;;;;5.80;2.10;;;;;;;0.71;40.71;100516.98;78080;1301;3025532;-60
2024/03/11 07:33:47;;;;;;;6.40;2.20;;;;;;;0.85;40.51;100513.83;79472;1301;3012970;-60
2024/03/11 07:36:18;;;;;;;7.30;2.80;;;;;;;0.86;40.17;100511.58;78680;1296;3013025;-60
2024/03/11 07:38:46;;;;;;;4.20;2.70;;;;;;;0.70;39.64;100514.91;79218;1295;3013407;-62
2024/03/11 07:41:13;;;;;;;3.60;1.70;;;;;;;0.92;40.17;100517.42;79355;1295;3011902;-60
2024/03/11 07:43:41;;;;;;;5.20;2.20;;;;;;;0.98;38.90;100520.83;78923;1294;3049503;-61
2024/03/11 07:46:08;;;;;;;4.40;2.10;;;;;;;0.80;38.42;100526.60;79618;1301;3013043;-61
2024/03/11 07:48:35;;;;;;;4.00;1.80;;;;;;;0.88;38.79;100526.58;79945;1295;3012856;-62
2024/03/11 07:51:04;;;;;;;3.00;1.80;;;;;;;0.84;38.37;100529.36;79429;1295;3025893;-60
2024/03/11 07:53:31;;;;;;;2.60;1.80;;;;;;;0.97;37.96;100531.55;80533;1297;3011318;-60
2024/03/11 07:55:57;;;;;;;4.10;2.20;;;;;;;1.14;38.09;100530.09;80180;1297;3011537;-60
2024/03/11 07:58:25;;;;;;;3.50;1.90;;;;;;;1.31;37.75;100530.52;79234;1300;3050260;-60
2024/03/11 08:00:52;;;;;;;4.10;2.00;;;;;;;1.35;37.49;100533.08;79767;1295;3013569;-61
2024/03/11 08:03:19;;;;;;;4.20;1.70;;;;;;;1.53;36.77;100522.79;80178;1298;3013286;-60
2024/03/11 08:05:48;;;;;;;6.10;2.20;;;;;;;1.62;36.15;100523.23;78278;1301;3051586;-61
2024/03/11 08:08:17;;;;;;;5.30;1.80;;;;;;;1.61;36.06;100524.97;79315;1295;3014072;-62
2024/03/11 08:10:50;;;;;;;4.00;1.90;;;;;;;1.41;36.15;100525.64;79235;1295;3011592;-59
2024/03/11 08:13:18;;;;;;;6.10;2.00;;;;;;;1.44;36.64;100519.40;79629;1301;3011648;-61
2024/03/11 08:15:46;;;;;;;8.20;2.10;;;;;;;1.34;36.16;100520.14;78657;1300;3050061;-61
2024/03/11 08:18:13;;;;;;;4.90;1.90;;;;;;;1.44;35.87;100526.98;79620;1299;3013124;-61
2024/03/11 08:20:40;;;;;;;8.00;2.20;;;;;;;1.66;35.75;100530.83;79431;1301;3011739;-63
2024/03/11 08:23:07;;;;;;;4.40;2.20;;;;;;;1.74;35.65;100535.43;78032;1298;3028844;-61
2024/03/11 08:25:34;;;;;;;6.30;2.30;;;;;;;1.84;35.55;100531.38;79380;1295;3020982;-62
2024/03/11 08:28:01;;;;;;;3.80;2.00;;;;;;;2.07;35.68;100534.98;79785;1294;3013212;-61
2024/03/11 08:30:30;;;;;;;7.40;2.30;;;;;;;1.86;34.47;100533.78;78665;1295;3026317;-61
2024/03/11 08:32:57;;;;;;;5.40;2.40;;;;;;;2.11;34.87;100530.27;79879;1294;3013089;-62
2024/03/11 08:35:24;;;;;;;5.50;2.20;;;;;;;2.32;34.53;100528.20;79886;1300;3011785;-60
2024/03/11 08:37:52;;;;;;;5.00;2.00;;;;;;;2.46;34.67;100526.85;78373;1295;3051777;-60
2024/03/11 08:40:25;;;;;;;4.50;2.00;;;;;;;2.73;34.55;100525.68;79230;1295;3012804;-60
2024/03/11 08:42:53;;;;;;;4.30;2.10;;;;;;;2.55;33.90;100528.31;78329;1295;3052708;-62
2024/03/11 08:45:22;;;;;;;8.00;2.10;;;;;;;2.66;34.06;100525.77;79300;1301;3013831;-62
2024/03/11 08:47:49;;;;;;;4.90;2.00;;;;;;;2.71;33.47;100525.71;80622;1300;3011734;-60
2024/03/11 08:50:17;;;;;;;4.10;2.30;;;;;;;2.88;33.84;100523.25;78857;1295;3068768;-62
2024/03/11 08:52:47;;;;;;;7.90;2.00;;;;;;;3.07;33.41;100526.30;79689;1295;3018089;-60
2024/03/11 08:55:16;;;;;;;7.40;2.40;;;;;;;3.00;32.82;100531.09;78070;1299;3049560;-59
2024/03/11 08:57:43;;;;;;;5.10;2.00;;;;;;;3.27;33.18;100531.75;79766;1298;3013483;-61
2024/03/11 09:00:11;;;;;;;3.70;2.00;;;;;;;3.32;32.89;100530.66;79147;1301;3013091;-62
2024/03/11 09:02:40;;;;;;;4.70;2.10;;;;;;;3.00;32.43;100532.98;78025;1300;3051888;-62
2024/03/11 09:05:10;;;;;;;4.00;1.90;;;;;;;3.23;32.85;100535.10;79913;1296;3018901;-60
2024/03/11 09:07:42;;;;;;;3.80;1.70;;;;;;;3.63;32.99;100536.27;79114;1294;3011821;-62
2024/03/11 09:10:09;;;;;;;3.10;2.00;;;;;;;3.73;32.62;100536.47;79267;1296;3013612;-61
2024/03/11 09:12:37;;;;;;;4.10;2.00;;;;;;;3.66;32.00;100539.70;78819;1295;3027683;-61
2024/03/11 09:15:12;;;;;;;3.90;2.20;;;;;;;3.65;32.04;100534.86;79461;1300;3013487;-61
2024/03/11 09:17:48;;;;;;;4.50;2.00;;;;;;;3.81;32.01;100535.84;78327;1300;3051888;-61
2024/03/11 09:20:17;;;;;;;4.10;2.00;;;;;;;3.99;32.15;100538.66;78605;1295;3051965;-59
2024/03/11 09:22:48;;;;;;;7.30;1.90;;;;;;;3.94;31.19;100541.67;80098;1295;3013209;-62
2024/03/11 09:25:22;;;;;;;4.90;1.70;;;;;;;4.01;31.38;100540.54;78011;1295;3051393;-63
2024/03/11 09:28:00;;;;;;;4.50;2.20;;;;;;;4.11;31.00;100540.55;79548;1295;3013102;-62
2024/03/11 09:30:32;;;;;;;2.90;1.90;;;;;;;4.06;31.40;100543.91;78346;1298;3057184;-62
2024/03/11 09:32:59;;;;;;;6.70;2.40;;;;;;;4.11;31.27;100539.86;80229;1295;3012060;-60
2024/03/11 09:35:28;;;;;;;4.60;2.20;;;;;;;4.25;30.80;100542.55;79219;1295;3026094;-62
2024/03/11 09:37:55;;;;;;;6.50;2.00;;;;;;;4.49;30.68;100538.34;79620;1295;3013220;-60
2024/03/11 09:40:26;;;;;;;3.10;1.80;;;;;;;4.59;30.48;100540.06;79578;1301;3011563;-63
2024/03/11 09:42:55;;;;;;;5.80;1.90;;;;;;;4.73;30.31;100533.72;78722;1294;3068357;-60
2024/03/11 09:45:23;;;;;;;4.40;1.60;;;;;;;4.74;29.88;100536.11;80012;1295;3013063;-62
2024/03/11 09:47:57;;;;;;;3.60;2.00;;;;;;;4.63;29.95;100538.24;79708;1296;3011855;-61
2024/03/11 09:50:32;;;;;;;4.00;1.90;;;;;;;4.78;29.55;100535.70;79178;1295;3054435;-61
2024/03/11 09:53:06;;;;;;;3.80;2.00;;;;;;;4.49;29.43;100533.98;79414;1295;3011874;-61
2024/03/11 09:55:33;;;;;;;4.10;2.00;;;;;;;4.63;30.29;100534.23;79467;1300;3012979;-64
2024/03/11 09:58:05;;;;;;;7.70;2.10;;;;;;;4.78;29.59;100531.52;78433;1298;3052329;-60
2024/03/11 10:00:33;;;;;;;6.70;1.80;;;;;;;4.89;29.59;100525.75;79890;1301;3011689;-60
2024/03/11 10:03:02;;;;;;;6.30;1.90;;;;;;;4.76;29.67;100526.54;78774;1295;3067449;-61
2024/03/11 10:05:32;;;;;;;3.30;1.80;;;;;;;5.02;29.89;100524.78;80052;1295;3012799;-60
2024/03/11 10:08:01;;;;;;;5.60;1.80;;;;;;;5.15;29.56;100521.21;78532;1299;3057177;-61
2024/03/11 10:10:32;;;;;;;12.40;1.60;;;;;;;5.18;29.17;100519.07;79711;1295;3013981;-60
2024/03/11 10:13:04;;;;;;;3.10;1.70;;;;;;;4.96;29.43;100520.92;78779;1295;3049694;-62
2024/03/11 10:15:32;;;;;;;4.70;1.90;;;;;;;5.27;29.56;100531.20;79858;1298;3012593;-59
2024/03/11 10:18:09;;;;;;;2.00;1.30;;;;;;;5.49;29.10;100530.39;78845;1298;3052288;-60
2024/03/11 10:20:37;;;;;;;4.20;2.10;;;;;;;5.70;29.06;100534.08;78009;1299;3069073;-62
2024/03/11 10:23:07;;;;;;;5.20;1.90;;;;;;;5.53;28.68;100536.89;79312;1299;3012887;-61
2024/03/11 10:25:36;;;;;;;2.50;1.40;;;;;;;5.60;28.89;100542.64;79908;1299;3011444;-60
2024/03/11 10:28:04;;;;;;;4.40;2.00;;;;;;;5.66;28.57;100544.93;79718;1295;3018106;-61
2024/03/11 10:30:34;;;;;;;6.40;1.70;;;;;;;5.82;28.64;100547.52;79859;1295;3013056;-61
2024/03/11 10:33:02;;;;;;;5.40;1.90;;;;;;;5.84;27.87;100545.91;78171;1301;3053347;-62
2024/03/11 10:35:35;;;;;;;4.80;1.80;;;;;;;5.80;27.92;100547.91;80079;1300;3013205;-61
2024/03/11 10:38:08;;;;;;;4.30;1.60;;;;;;;5.82;27.84;100544.73;78987;1295;3050799;-62
2024/03/11 10:40:37;;;;;;;8.20;1.90;;;;;;;5.87;28.07;100538.89;79666;1295;3013111;-61
2024/03/11 10:43:20;;;;;;;4.80;1.60;;;;;;;5.90;27.85;100538.48;78267;1301;3048373;-61
2024/03/11 10:45:47;;;;;;;3.00;1.60;;;;;;;5.94;27.59;100534.02;78895;1301;3052747;-63
2024/03/11 10:48:15;;;;;;;4.40;1.70;;;;;;;6.14;27.63;100537.23;79659;1298;3013295;-62
2024/03/11 10:50:41;;;;;;;3.50;1.50;;;;;;;6.38;27.57;100535.73;79326;1301;3011953;-61
2024/03/11 10:53:24;;;;;;;4.80;1.60;;;;;;;6.67;27.64;100533.92;78989;1294;3026216;-61
2024/03/11 10:55:57;;;;;;;3.80;1.70;;;;;;;6.45;26.82;100533.47;78167;1295;3051025;-63
2024/03/11 10:58:28;;;;;;;3.60;2.30;;;;;;;6.23;27.31;100534.73;79258;1299;3013460;-60
2024/03/11 11:00:58;;;;;;;5.00;2.00;;;;;;;6.15;27.65;100537.20;78912;1295;3048540;-61
2024/03/11 11:03:26;;;;;;;3.90;1.90;;;;;;;6.20;27.62;100543.16;79687;1296;3012753;-60
2024/03/11 11:06:09;;;;;;;3.00;1.60;;;;;;;6.54;27.00;100540.52;79364;1299;3013443;-59
2024/03/11 11:08:37;;;;;;;3.90;1.90;;;;;;;6.44;26.54;100541.33;78531;1299;3050791;-61
2024/03/11 11:11:04;;;;;;;4.70;1.80;;;;;;;6.68;26.85;100540.51;79456;1299;3013084;-62
2024/03/11 11:13:31;;;;;;;2.20;1.50;;;;;;;6.64;26.28;100542.01;79096;1301;3011713;-68
2024/03/11 11:16:03;;;;;;;4.20;1.70;;;;;;;6.55;26.25;100540.34;78012;1299;3055364;-61